sensor_id;sensor_type;location;lat;lon;timestamp;pressure;altitude;pressure_sealevel;temperature;humidity
10720;BME280;5411;58.386;15.560;2022-08-04T00:01:18;100389.66;;;22.15;99.73
10720;BME280;5411;58.386;15.560;2022-08-04T00:04:13;100386.13;;;22.15;99.83
10720;BME280;5411;58.386;15.560;2022-08-04T00:06:48;100391.06;;;22.08;100.00
10720;BME280;5411;58.386;15.560;2022-08-04T00:09:27;100399.78;;;22.10;100.00
10720;BME280;5411;58.386;15.560;2022-08-04T00:12:11;100398.16;;;22.09;100.00
10720;BME280;5411;58.386;15.560;2022-08-04T00:14:46;100398.66;;;22.16;100.00
10720;BME280;5411;58.386;15.560;2022-08-04T00:17:18;100403.56;;;22.14;100.00
10720;BME280;5411;58.386;15.560;2022-08-04T00:19:51;100403.03;;;22.12;100.00
10720;BME280;5411;58.386;15.560;2022-08-04T00:22:22;100393.25;;;22.06;100.00
10720;BME280;5411;58.386;15.560;2022-08-04T00:24:54;100404.16;;;22.06;100.00
10720;BME280;5411;58.386;15.560;2022-08-04T00:27:22;100409.34;;;22.07;100.00
10720;BME280;5411;58.386;15.560;2022-08-04T00:29:51;100402.22;;;22.11;100.00
10720;BME280;5411;58.386;15.560;2022-08-04T00:32:21;100405.78;;;22.07;100.00
10720;BME280;5411;58.386;15.560;2022-08-04T00:35:06;100409.06;;;22.09;100.00
10720;BME280;5411;58.386;15.560;2022-08-04T00:37:36;100405.78;;;21.96;100.00
10720;BME280;5411;58.386;15.560;2022-08-04T00:40:12;100400.88;;;21.93;100.00
10720;BME280;5411;58.386;15.560;2022-08-04T00:42:48;100397.31;;;21.98;100.00
10720;BME280;5411;58.386;15.560;2022-08-04T00:45:56;100401.97;;;22.02;100.00
10720;BME280;5411;58.386;15.560;2022-08-04T00:49:29;100405.75;;;22.12;100.00
10720;BME280;5411;58.386;15.560;2022-08-04T00:52:16;100407.38;;;22.18;100.00
10720;BME280;5411;58.386;15.560;2022-08-04T00:55:18;100410.69;;;22.10;100.00
10720;BME280;5411;58.386;15.560;2022-08-04T00:58:05;100403.06;;;22.07;100.00
10720;BME280;5411;58.386;15.560;2022-08-04T01:00:43;100411.78;;;22.09;100.00
10720;BME280;5411;58.386;15.560;2022-08-04T01:03:20;100414.25;;;21.95;100.00
10720;BME280;5411;58.386;15.560;2022-08-04T01:06:00;100409.34;;;21.92;100.00
10720;BME280;5411;58.386;15.560;2022-08-04T01:08:42;100409.63;;;21.75;100.00
10720;BME280;5411;58.386;15.560;2022-08-04T01:11:30;100409.09;;;21.73;100.00
10720;BME280;5411;58.386;15.560;2022-08-04T01:14:32;100411.03;;;21.67;100.00
10720;BME280;5411;58.386;15.560;2022-08-04T01:17:06;100405.03;;;21.65;100.00
10720;BME280;5411;58.386;15.560;2022-08-04T01:20:03;100418.63;;;21.76;100.00
10720;BME280;5411;58.386;15.560;2022-08-04T01:23:08;100417.78;;;21.95;100.00
10720;BME280;5411;58.386;15.560;2022-08-04T01:26:04;100411.50;;;22.00;100.00
10720;BME280;5411;58.386;15.560;2022-08-04T01:29:05;100415.59;;;22.08;100.00
10720;BME280;5411;58.386;15.560;2022-08-04T01:31:54;100415.88;;;22.06;100.00
10720;BME280;5411;58.386;15.560;2022-08-04T01:34:26;100419.69;;;22.05;100.00
10720;BME280;5411;58.386;15.560;2022-08-04T01:36:58;100417.47;;;22.12;100.00
10720;BME280;5411;58.386;15.560;2022-08-04T01:39:33;100420.72;;;22.19;98.95
10720;BME280;5411;58.386;15.560;2022-08-04T01:42:09;100428.06;;;22.29;98.40
10720;BME280;5411;58.386;15.560;2022-08-04T01:44:59;100429.41;;;22.31;98.70
10720;BME280;5411;58.386;15.560;2022-08-04T01:47:29;100421.50;;;22.30;97.94
10720;BME280;5411;58.386;15.560;2022-08-04T01:50:05;100425.84;;;22.36;97.30
10720;BME280;5411;58.386;15.560;2022-08-04T01:52:34;100426.94;;;22.35;98.73
10720;BME280;5411;58.386;15.560;2022-08-04T01:55:04;100430.50;;;22.35;97.26
10720;BME280;5411;58.386;15.560;2022-08-04T01:57:36;100430.22;;;22.37;98.48
10720;BME280;5411;58.386;15.560;2022-08-04T02:00:08;100430.78;;;22.29;98.17
10720;BME280;5411;58.386;15.560;2022-08-04T02:02:36;100426.16;;;22.24;99.08
10720;BME280;5411;58.386;15.560;2022-08-04T02:05:05;100434.63;;;22.18;99.65
10720;BME280;5411;58.386;15.560;2022-08-04T02:07:58;100420.78;;;21.99;100.00
10720;BME280;5411;58.386;15.560;2022-08-04T02:10:29;100426.25;;;21.84;100.00
10720;BME280;5411;58.386;15.560;2022-08-04T02:13:09;100421.34;;;21.76;100.00
10720;BME280;5411;58.386;15.560;2022-08-04T02:15:51;100426.00;;;21.70;100.00
10720;BME280;5411;58.386;15.560;2022-08-04T02:18:27;100428.75;;;21.55;100.00
10720;BME280;5411;58.386;15.560;2022-08-04T02:20:59;100429.56;;;21.45;100.00
10720;BME280;5411;58.386;15.560;2022-08-04T02:23:30;100426.31;;;21.43;100.00
10720;BME280;5411;58.386;15.560;2022-08-04T02:26:02;100420.56;;;21.45;100.00
10720;BME280;5411;58.386;15.560;2022-08-04T02:28:38;100422.78;;;21.43;100.00
10720;BME280;5411;58.386;15.560;2022-08-04T02:31:18;100427.13;;;21.54;100.00
10720;BME280;5411;58.386;15.560;2022-08-04T02:34:00;100412.13;;;21.66;100.00
10720;BME280;5411;58.386;15.560;2022-08-04T02:36:33;100423.00;;;21.72;100.00
10720;BME280;5411;58.386;15.560;2022-08-04T02:39:06;100423.81;;;21.77;100.00
10720;BME280;5411;58.386;15.560;2022-08-04T02:41:35;100430.06;;;21.73;100.00
10720;BME280;5411;58.386;15.560;2022-08-04T02:44:05;100423.84;;;21.57;100.00
10720;BME280;5411;58.386;15.560;2022-08-04T02:46:36;100430.63;;;21.59;100.00
10720;BME280;5411;58.386;15.560;2022-08-04T02:49:07;100433.63;;;21.58;100.00
10720;BME280;5411;58.386;15.560;2022-08-04T02:51:38;100432.56;;;21.54;100.00
10720;BME280;5411;58.386;15.560;2022-08-04T02:54:07;100418.09;;;21.58;100.00
10720;BME280;5411;58.386;15.560;2022-08-04T02:56:38;100431.47;;;21.55;100.00
10720;BME280;5411;58.386;15.560;2022-08-04T02:59:09;100430.66;;;21.54;100.00
10720;BME280;5411;58.386;15.560;2022-08-04T03:01:40;100427.38;;;21.57;100.00
10720;BME280;5411;58.386;15.560;2022-08-04T03:04:40;100431.19;;;21.61;100.00
10720;BME280;5411;58.386;15.560;2022-08-04T03:07:36;100430.94;;;21.53;100.00
10720;BME280;5411;58.386;15.560;2022-08-04T03:13:41;100440.72;;;21.59;100.00
10720;BME280;5411;58.386;15.560;2022-08-04T03:26:01;100429.78;;;21.94;100.00
10720;BME280;5411;58.386;15.560;2022-08-04T03:29:05;100433.53;;;22.19;98.75
10720;BME280;5411;58.386;15.560;2022-08-04T03:32:20;100426.91;;;22.45;96.98
10720;BME280;5411;58.386;15.560;2022-08-04T03:35:02;100421.59;;;22.69;95.25
10720;BME280;5411;58.386;15.560;2022-08-04T03:38:05;100431.06;;;22.87;94.04
10720;BME280;5411;58.386;15.560;2022-08-04T03:40:54;100434.34;;;22.89;93.05
10720;BME280;5411;58.386;15.560;2022-08-04T03:43:51;100442.19;;;23.00;92.02
10720;BME280;5411;58.386;15.560;2022-08-04T03:46:46;100437.28;;;22.97;92.31
10720;BME280;5411;58.386;15.560;2022-08-04T03:49:54;100440.00;;;22.97;90.96
10720;BME280;5411;58.386;15.560;2022-08-04T03:55:49;100457.91;;;23.14;90.15
10720;BME280;5411;58.386;15.560;2022-08-04T03:58:42;100467.69;;;23.20;90.16
10720;BME280;5411;58.386;15.560;2022-08-04T04:01:28;100462.31;;;23.09;90.54
10720;BME280;5411;58.386;15.560;2022-08-04T04:07:59;100470.78;;;23.08;90.07
10720;BME280;5411;58.386;15.560;2022-08-04T04:14:42;100474.66;;;22.97;91.06
10720;BME280;5411;58.386;15.560;2022-08-04T04:17:29;100473.03;;;22.96;91.44
10720;BME280;5411;58.386;15.560;2022-08-04T04:23:29;100483.69;;;22.97;90.75
10720;BME280;5411;58.386;15.560;2022-08-04T04:26:05;100484.50;;;22.93;90.72
10720;BME280;5411;58.386;15.560;2022-08-04T04:28:49;100488.09;;;22.88;92.33
10720;BME280;5411;58.386;15.560;2022-08-04T04:31:41;100487.56;;;22.86;92.08
10720;BME280;5411;58.386;15.560;2022-08-04T04:34:24;100494.38;;;22.89;90.96
10720;BME280;5411;58.386;15.560;2022-08-04T04:37:05;100494.34;;;22.94;90.56
10720;BME280;5411;58.386;15.560;2022-08-04T04:39:42;100506.00;;;23.04;91.46
10720;BME280;5411;58.386;15.560;2022-08-04T04:42:41;100491.31;;;23.00;90.73
10720;BME280;5411;58.386;15.560;2022-08-04T04:45:21;100507.91;;;23.09;89.80
10720;BME280;5411;58.386;15.560;2022-08-04T04:47:58;100512.81;;;23.12;91.18
10720;BME280;5411;58.386;15.560;2022-08-04T04:50:43;100508.09;;;23.18;90.28
10720;BME280;5411;58.386;15.560;2022-08-04T04:53:23;100502.00;;;23.31;90.21
10720;BME280;5411;58.386;15.560;2022-08-04T04:56:02;100508.44;;;23.50;88.33
10720;BME280;5411;58.386;15.560;2022-08-04T04:58:34;100505.19;;;23.48;88.10
10720;BME280;5411;58.386;15.560;2022-08-04T05:01:31;100508.28;;;23.31;89.00
10720;BME280;5411;58.386;15.560;2022-08-04T05:04:15;100507.53;;;23.26;88.76
10720;BME280;5411;58.386;15.560;2022-08-04T05:07:17;100514.28;;;23.33;88.59
10720;BME280;5411;58.386;15.560;2022-08-04T05:10:02;100513.66;;;23.46;88.01
10720;BME280;5411;58.386;15.560;2022-08-04T05:12:51;100516.94;;;23.54;88.14
10720;BME280;5411;58.386;15.560;2022-08-04T05:15:51;100514.13;;;23.59;87.26
10720;BME280;5411;58.386;15.560;2022-08-04T05:18:24;100506.28;;;23.52;87.42
10720;BME280;5411;58.386;15.560;2022-08-04T05:21:01;100518.03;;;23.48;87.53
10720;BME280;5411;58.386;15.560;2022-08-04T05:23:36;100523.53;;;23.42;87.99
10720;BME280;5411;58.386;15.560;2022-08-04T05:26:10;100524.66;;;23.36;88.20
10720;BME280;5411;58.386;15.560;2022-08-04T05:28:40;100520.38;;;23.25;87.99
10720;BME280;5411;58.386;15.560;2022-08-04T05:31:11;100524.50;;;23.18;88.29
10720;BME280;5411;58.386;15.560;2022-08-04T05:33:46;100528.72;;;23.00;87.17
10720;BME280;5411;58.386;15.560;2022-08-04T05:36:20;100522.44;;;22.94;87.21
10720;BME280;5411;58.386;15.560;2022-08-04T05:39:09;100528.72;;;22.95;87.85
10720;BME280;5411;58.386;15.560;2022-08-04T05:41:39;100528.78;;;22.80;86.30
10720;BME280;5411;58.386;15.560;2022-08-04T05:44:14;100533.16;;;22.81;85.16
10720;BME280;5411;58.386;15.560;2022-08-04T05:46:46;100534.81;;;22.71;86.54
10720;BME280;5411;58.386;15.560;2022-08-04T05:49:22;100538.91;;;22.74;86.29
10720;BME280;5411;58.386;15.560;2022-08-04T05:51:56;100538.88;;;22.84;85.40
10720;BME280;5411;58.386;15.560;2022-08-04T05:54:25;100543.50;;;22.89;84.62
10720;BME280;5411;58.386;15.560;2022-08-04T05:56:56;100543.25;;;22.80;85.43
10720;BME280;5411;58.386;15.560;2022-08-04T05:59:25;100536.69;;;22.81;85.42
10720;BME280;5411;58.386;15.560;2022-08-04T06:01:55;100544.31;;;22.89;85.77
10720;BME280;5411;58.386;15.560;2022-08-04T06:04:30;100551.03;;;23.07;83.95
10720;BME280;5411;58.386;15.560;2022-08-04T06:07:03;100554.84;;;23.11;83.56
10720;BME280;5411;58.386;15.560;2022-08-04T06:09:32;100553.00;;;23.01;84.84
10720;BME280;5411;58.386;15.560;2022-08-04T06:12:02;100549.13;;;23.13;84.41
10720;BME280;5411;58.386;15.560;2022-08-04T06:14:38;100544.22;;;23.04;83.75
10720;BME280;5411;58.386;15.560;2022-08-04T06:17:08;100545.66;;;22.92;85.18
10720;BME280;5411;58.386;15.560;2022-08-04T06:19:58;100543.47;;;22.94;84.21
10720;BME280;5411;58.386;15.560;2022-08-04T06:22:52;100546.72;;;23.01;85.15
10720;BME280;5411;58.386;15.560;2022-08-04T06:25:24;100546.09;;;23.14;84.49
10720;BME280;5411;58.386;15.560;2022-08-04T06:27:58;100545.22;;;23.24;82.77
10720;BME280;5411;58.386;15.560;2022-08-04T06:30:29;100542.69;;;23.37;82.50
10720;BME280;5411;58.386;15.560;2022-08-04T06:32:59;100540.41;;;23.50;81.19
10720;BME280;5411;58.386;15.560;2022-08-04T06:35:33;100533.84;;;23.56;79.76
10720;BME280;5411;58.386;15.560;2022-08-04T06:38:07;100534.34;;;23.58;79.08
10720;BME280;5411;58.386;15.560;2022-08-04T06:40:38;100536.59;;;23.56;79.77
10720;BME280;5411;58.386;15.560;2022-08-04T06:43:06;100534.63;;;23.61;79.38
10720;BME280;5411;58.386;15.560;2022-08-04T06:45:36;100532.16;;;23.60;77.53
10720;BME280;5411;58.386;15.560;2022-08-04T06:48:08;100540.81;;;23.72;77.70
10720;BME280;5411;58.386;15.560;2022-08-04T06:50:40;100546.59;;;23.99;75.11
10720;BME280;5411;58.386;15.560;2022-08-04T06:53:30;100550.94;;;24.05;74.39
10720;BME280;5411;58.386;15.560;2022-08-04T06:55:58;100548.75;;;24.02;73.80
10720;BME280;5411;58.386;15.560;2022-08-04T06:58:31;100564.53;;;24.10;72.41
10720;BME280;5411;58.386;15.560;2022-08-04T07:01:00;100556.81;;;24.23;71.92
10720;BME280;5411;58.386;15.560;2022-08-04T07:03:39;100549.31;;;24.33;71.03
10720;BME280;5411;58.386;15.560;2022-08-04T07:06:07;100540.34;;;24.51;71.71
10720;BME280;5411;58.386;15.560;2022-08-04T07:08:42;100544.84;;;24.66;69.96
10720;BME280;5411;58.386;15.560;2022-08-04T07:11:10;100551.06;;;24.72;68.62
10720;BME280;5411;58.386;15.560;2022-08-04T07:13:40;100554.09;;;24.70;68.59
10720;BME280;5411;58.386;15.560;2022-08-04T07:16:12;100558.34;;;24.81;67.63
10720;BME280;5411;58.386;15.560;2022-08-04T07:18:43;100557.66;;;24.95;70.71
10720;BME280;5411;58.386;15.560;2022-08-04T07:21:18;100550.63;;;25.07;68.67
10720;BME280;5411;58.386;15.560;2022-08-04T07:23:50;100561.69;;;25.21;67.02
10720;BME280;5411;58.386;15.560;2022-08-04T07:26:18;100560.44;;;25.13;65.88
10720;BME280;5411;58.386;15.560;2022-08-04T07:28:46;100561.59;;;25.07;67.49
10720;BME280;5411;58.386;15.560;2022-08-04T07:31:16;100561.84;;;25.11;69.16
10720;BME280;5411;58.386;15.560;2022-08-04T07:34:01;100561.31;;;25.46;67.87
10720;BME280;5411;58.386;15.560;2022-08-04T07:36:47;100550.81;;;25.72;66.28
10720;BME280;5411;58.386;15.560;2022-08-04T07:39:23;100556.13;;;25.82;64.86
10720;BME280;5411;58.386;15.560;2022-08-04T07:42:01;100556.56;;;25.89;64.51
10720;BME280;5411;58.386;15.560;2022-08-04T07:44:35;100550.00;;;26.04;64.67
10720;BME280;5411;58.386;15.560;2022-08-04T07:47:06;100555.28;;;26.14;63.96
10720;BME280;5411;58.386;15.560;2022-08-04T07:49:34;100545.47;;;26.27;63.28
10720;BME280;5411;58.386;15.560;2022-08-04T07:52:23;100553.22;;;26.39;62.88
10720;BME280;5411;58.386;15.560;2022-08-04T07:54:53;100553.34;;;26.47;61.78
10720;BME280;5411;58.386;15.560;2022-08-04T07:57:21;100545.72;;;26.44;59.39
10720;BME280;5411;58.386;15.560;2022-08-04T08:00:07;100545.94;;;26.48;61.84
10720;BME280;5411;58.386;15.560;2022-08-04T08:02:37;100544.69;;;26.40;59.36
10720;BME280;5411;58.386;15.560;2022-08-04T08:05:07;100529.97;;;26.36;59.84
10720;BME280;5411;58.386;15.560;2022-08-04T08:07:37;100548.56;;;26.39;60.54
10720;BME280;5411;58.386;15.560;2022-08-04T08:10:18;100541.56;;;26.47;59.30
10720;BME280;5411;58.386;15.560;2022-08-04T08:12:47;100550.19;;;26.54;59.75
10720;BME280;5411;58.386;15.560;2022-08-04T08:15:19;100557.00;;;26.70;59.94
10720;BME280;5411;58.386;15.560;2022-08-04T08:17:48;100551.00;;;26.82;59.78
10720;BME280;5411;58.386;15.560;2022-08-04T08:20:28;100545.03;;;26.93;58.99
10720;BME280;5411;58.386;15.560;2022-08-04T08:22:57;100540.34;;;26.94;58.15
10720;BME280;5411;58.386;15.560;2022-08-04T08:25:28;100539.44;;;26.99;56.54
10720;BME280;5411;58.386;15.560;2022-08-04T08:27:57;100547.06;;;27.02;56.56
10720;BME280;5411;58.386;15.560;2022-08-04T08:30:25;100541.25;;;27.03;56.38
10720;BME280;5411;58.386;15.560;2022-08-04T08:32:59;100541.94;;;27.09;56.08
10720;BME280;5411;58.386;15.560;2022-08-04T08:35:39;100540.22;;;27.13;56.85
10720;BME280;5411;58.386;15.560;2022-08-04T08:38:42;100543.66;;;27.18;55.74
10720;BME280;5411;58.386;15.560;2022-08-04T08:47:57;100526.28;;;27.09;53.97
10720;BME280;5411;58.386;15.560;2022-08-04T08:50:57;100531.38;;;27.02;53.73
10720;BME280;5411;58.386;15.560;2022-08-04T08:53:57;100542.84;;;26.90;54.34
10720;BME280;5411;58.386;15.560;2022-08-04T08:56:34;100543.28;;;26.84;55.70
10720;BME280;5411;58.386;15.560;2022-08-04T08:59:26;100527.94;;;26.96;56.20
10720;BME280;5411;58.386;15.560;2022-08-04T09:02:23;100532.59;;;27.10;53.60
10720;BME280;5411;58.386;15.560;2022-08-04T09:05:12;100529.03;;;27.09;54.39
10720;BME280;5411;58.386;15.560;2022-08-04T09:07:54;100541.44;;;27.07;54.74
10720;BME280;5411;58.386;15.560;2022-08-04T09:10:27;100540.94;;;27.05;55.60
10720;BME280;5411;58.386;15.560;2022-08-04T09:13:07;100540.22;;;26.85;54.47
10720;BME280;5411;58.386;15.560;2022-08-04T09:15:42;100538.31;;;26.72;53.26
10720;BME280;5411;58.386;15.560;2022-08-04T09:18:35;100535.94;;;26.66;55.18
10720;BME280;5411;58.386;15.560;2022-08-04T09:21:11;100533.19;;;26.79;57.08
10720;BME280;5411;58.386;15.560;2022-08-04T09:23:48;100529.84;;;27.10;56.47
10720;BME280;5411;58.386;15.560;2022-08-04T09:26:26;100533.44;;;27.32;55.85
10720;BME280;5411;58.386;15.560;2022-08-04T09:29:05;100532.41;;;27.42;55.08
10720;BME280;5411;58.386;15.560;2022-08-04T09:31:42;100529.28;;;27.57;53.70
10720;BME280;5411;58.386;15.560;2022-08-04T09:34:41;100537.81;;;27.70;53.49
10720;BME280;5411;58.386;15.560;2022-08-04T09:37:16;100533.69;;;27.81;51.60
10720;BME280;5411;58.386;15.560;2022-08-04T09:39:59;100536.22;;;27.99;52.03
10720;BME280;5411;58.386;15.560;2022-08-04T09:42:36;100532.75;;;28.16;51.22
10720;BME280;5411;58.386;15.560;2022-08-04T09:45:15;100526.72;;;28.36;49.76
10720;BME280;5411;58.386;15.560;2022-08-04T09:47:55;100529.22;;;28.55;48.87
10720;BME280;5411;58.386;15.560;2022-08-04T09:50:32;100520.03;;;28.68;48.55
10720;BME280;5411;58.386;15.560;2022-08-04T09:53:26;100523.47;;;28.74;49.67
10720;BME280;5411;58.386;15.560;2022-08-04T09:56:04;100518.75;;;28.75;50.20
10720;BME280;5411;58.386;15.560;2022-08-04T09:58:51;100514.84;;;28.67;49.48
10720;BME280;5411;58.386;15.560;2022-08-04T10:01:24;100522.59;;;28.56;49.64
10720;BME280;5411;58.386;15.560;2022-08-04T10:03:56;100523.53;;;28.52;50.61
10720;BME280;5411;58.386;15.560;2022-08-04T10:06:38;100519.16;;;28.51;49.79
10720;BME280;5411;58.386;15.560;2022-08-04T10:09:27;100519.16;;;28.51;50.68
10720;BME280;5411;58.386;15.560;2022-08-04T10:12:07;100531.97;;;28.47;49.37
10720;BME280;5411;58.386;15.560;2022-08-04T10:14:50;100522.41;;;28.53;50.21
10720;BME280;5411;58.386;15.560;2022-08-04T10:17:36;100516.25;;;28.56;49.73
10720;BME280;5411;58.386;15.560;2022-08-04T10:20:37;100529.22;;;28.55;50.15
10720;BME280;5411;58.386;15.560;2022-08-04T10:26:26;100517.09;;;28.56;50.07
10720;BME280;5411;58.386;15.560;2022-08-04T10:28:59;100511.44;;;28.70;50.10
10720;BME280;5411;58.386;15.560;2022-08-04T10:31:33;100510.97;;;28.77;49.02
10720;BME280;5411;58.386;15.560;2022-08-04T10:34:09;100508.59;;;28.92;48.67
10720;BME280;5411;58.386;15.560;2022-08-04T10:36:43;100505.06;;;29.26;48.13
10720;BME280;5411;58.386;15.560;2022-08-04T10:39:19;100492.56;;;29.72;47.61
10720;BME280;5411;58.386;15.560;2022-08-04T10:42:16;100499.03;;;29.93;46.33
10720;BME280;5411;58.386;15.560;2022-08-04T10:45:13;100495.59;;;30.05;44.30
10720;BME280;5411;58.386;15.560;2022-08-04T10:47:51;100495.41;;;30.10;45.36
10720;BME280;5411;58.386;15.560;2022-08-04T10:50:28;100485.84;;;30.07;44.62
10720;BME280;5411;58.386;15.560;2022-08-04T10:53:02;100490.38;;;30.12;44.65
10720;BME280;5411;58.386;15.560;2022-08-04T10:55:41;100478.63;;;30.24;45.01
10720;BME280;5411;58.386;15.560;2022-08-04T10:58:35;100478.78;;;30.27;44.65
10720;BME280;5411;58.386;15.560;2022-08-04T11:01:19;100477.31;;;30.30;44.02
10720;BME280;5411;58.386;15.560;2022-08-04T11:04:15;100471.31;;;30.28;44.56
10720;BME280;5411;58.386;15.560;2022-08-04T11:06:55;100474.88;;;30.28;44.97
10720;BME280;5411;58.386;15.560;2022-08-04T11:09:26;100469.25;;;30.16;44.42
10720;BME280;5411;58.386;15.560;2022-08-04T11:12:03;100465.97;;;30.23;43.97
10720;BME280;5411;58.386;15.560;2022-08-04T11:14:43;100462.41;;;30.22;42.64
10720;BME280;5411;58.386;15.560;2022-08-04T11:17:18;100463.44;;;30.09;43.57
10720;BME280;5411;58.386;15.560;2022-08-04T11:19:57;100457.22;;;30.12;44.18
10720;BME280;5411;58.386;15.560;2022-08-04T11:22:53;100449.47;;;30.05;43.73
10720;BME280;5411;58.386;15.560;2022-08-04T11:25:27;100448.94;;;30.12;44.68
10720;BME280;5411;58.386;15.560;2022-08-04T11:28:02;100454.81;;;30.10;43.63
10720;BME280;5411;58.386;15.560;2022-08-04T11:30:39;100451.00;;;30.24;44.38
10720;BME280;5411;58.386;15.560;2022-08-04T11:33:16;100446.38;;;30.36;43.29
10720;BME280;5411;58.386;15.560;2022-08-04T11:35:54;100444.31;;;30.33;43.68
10720;BME280;5411;58.386;15.560;2022-08-04T11:38:32;100448.59;;;30.22;43.87
10720;BME280;5411;58.386;15.560;2022-08-04T11:41:08;100442.50;;;30.08;44.83
10720;BME280;5411;58.386;15.560;2022-08-04T11:43:43;100440.56;;;29.91;45.47
10720;BME280;5411;58.386;15.560;2022-08-04T11:46:31;100442.53;;;29.91;45.21
10720;BME280;5411;58.386;15.560;2022-08-04T11:49:06;100439.59;;;29.87;45.78
10720;BME280;5411;58.386;15.560;2022-08-04T11:51:35;100447.06;;;29.95;45.33
10720;BME280;5411;58.386;15.560;2022-08-04T11:54:05;100438.00;;;30.24;44.97
10720;BME280;5411;58.386;15.560;2022-08-04T11:56:33;100435.50;;;30.40;45.00
10720;BME280;5411;58.386;15.560;2022-08-04T11:59:07;100429.16;;;30.39;43.92
10720;BME280;5411;58.386;15.560;2022-08-04T12:01:46;100432.00;;;30.52;43.91
10720;BME280;5411;58.386;15.560;2022-08-04T12:07:19;100425.34;;;30.82;43.72
10720;BME280;5411;58.386;15.560;2022-08-04T12:10:08;100423.25;;;31.00;43.69
10720;BME280;5411;58.386;15.560;2022-08-04T12:12:44;100425.06;;;31.16;43.08
10720;BME280;5411;58.386;15.560;2022-08-04T12:15:19;100411.38;;;31.20;43.33
10720;BME280;5411;58.386;15.560;2022-08-04T12:17:53;100419.94;;;31.27;43.27
10720;BME280;5411;58.386;15.560;2022-08-04T12:20:29;100413.56;;;31.14;43.46
10720;BME280;5411;58.386;15.560;2022-08-04T12:23:17;100409.69;;;30.86;44.12
10720;BME280;5411;58.386;15.560;2022-08-04T12:25:53;100405.78;;;30.66;43.87
10720;BME280;5411;58.386;15.560;2022-08-04T12:28:27;100415.91;;;30.62;44.33
10720;BME280;5411;58.386;15.560;2022-08-04T12:31:20;100401.78;;;30.55;44.79
10720;BME280;5411;58.386;15.560;2022-08-04T12:33:54;100401.78;;;30.55;43.73
10720;BME280;5411;58.386;15.560;2022-08-04T12:36:36;100392.44;;;30.68;44.44
10720;BME280;5411;58.386;15.560;2022-08-04T12:39:10;100387.19;;;30.75;44.02
10720;BME280;5411;58.386;15.560;2022-08-04T12:41:44;100397.47;;;30.66;44.19
10720;BME280;5411;58.386;15.560;2022-08-04T12:44:15;100394.56;;;30.63;44.42
10720;BME280;5411;58.386;15.560;2022-08-04T12:47:06;100397.34;;;30.63;44.92
10720;BME280;5411;58.386;15.560;2022-08-04T12:49:58;100388.88;;;30.68;44.10
10720;BME280;5411;58.386;15.560;2022-08-04T12:52:30;100390.97;;;30.71;43.82
10720;BME280;5411;58.386;15.560;2022-08-04T12:55:36;100384.44;;;30.75;44.11
10720;BME280;5411;58.386;15.560;2022-08-04T12:58:14;100386.09;;;30.89;43.66
10720;BME280;5411;58.386;15.560;2022-08-04T13:01:04;100382.59;;;31.00;44.17
10720;BME280;5411;58.386;15.560;2022-08-04T13:03:55;100381.22;;;31.06;43.50
10720;BME280;5411;58.386;15.560;2022-08-04T13:06:27;100372.59;;;31.08;43.94
10720;BME280;5411;58.386;15.560;2022-08-04T13:09:02;100373.25;;;31.05;43.57
10720;BME280;5411;58.386;15.560;2022-08-04T13:11:36;100374.38;;;31.12;43.92
10720;BME280;5411;58.386;15.560;2022-08-04T13:14:12;100366.31;;;31.20;43.99
10720;BME280;5411;58.386;15.560;2022-08-04T13:16:58;100364.03;;;31.22;43.47
10720;BME280;5411;58.386;15.560;2022-08-04T13:19:28;100362.06;;;31.22;43.45
10720;BME280;5411;58.386;15.560;2022-08-04T13:22:07;100368.53;;;31.26;44.03
10720;BME280;5411;58.386;15.560;2022-08-04T13:24:43;100361.03;;;31.27;43.68
10720;BME280;5411;58.386;15.560;2022-08-04T13:27:32;100353.56;;;31.27;44.07
10720;BME280;5411;58.386;15.560;2022-08-04T13:30:11;100354.03;;;31.29;43.54
10720;BME280;5411;58.386;15.560;2022-08-04T13:32:52;100352.03;;;31.30;43.68
10720;BME280;5411;58.386;15.560;2022-08-04T13:35:29;100346.94;;;31.20;44.04
10720;BME280;5411;58.386;15.560;2022-08-04T13:38:23;100340.53;;;31.07;44.05
10720;BME280;5411;58.386;15.560;2022-08-04T13:40:55;100334.03;;;31.11;44.68
10720;BME280;5411;58.386;15.560;2022-08-04T13:43:26;100330.72;;;31.30;44.24
10720;BME280;5411;58.386;15.560;2022-08-04T13:46:19;100328.13;;;31.58;43.89
10720;BME280;5411;58.386;15.560;2022-08-04T13:48:54;100324.66;;;31.61;43.15
10720;BME280;5411;58.386;15.560;2022-08-04T13:51:46;100311.66;;;31.62;43.72
10720;BME280;5411;58.386;15.560;2022-08-04T13:54:25;100304.97;;;31.63;43.94
10720;BME280;5411;58.386;15.560;2022-08-04T13:56:58;100299.56;;;31.66;43.49
10720;BME280;5411;58.386;15.560;2022-08-04T13:59:37;100297.72;;;31.70;43.08
10720;BME280;5411;58.386;15.560;2022-08-04T14:02:15;100291.81;;;31.60;43.98
10720;BME280;5411;58.386;15.560;2022-08-04T14:04:54;100294.22;;;31.61;43.73
10720;BME280;5411;58.386;15.560;2022-08-04T14:07:27;100286.88;;;31.65;43.25
10720;BME280;5411;58.386;15.560;2022-08-04T14:09:58;100287.88;;;31.48;43.55
10720;BME280;5411;58.386;15.560;2022-08-04T14:12:33;100288.00;;;31.52;44.27
10720;BME280;5411;58.386;15.560;2022-08-04T14:15:31;100287.88;;;31.48;44.24
10720;BME280;5411;58.386;15.560;2022-08-04T14:18:23;100293.75;;;31.59;44.35
10720;BME280;5411;58.386;15.560;2022-08-04T14:21:10;100296.19;;;31.61;43.93
10720;BME280;5411;58.386;15.560;2022-08-04T14:23:48;100296.91;;;31.70;44.17
10720;BME280;5411;58.386;15.560;2022-08-04T14:26:22;100283.06;;;31.70;44.08
10720;BME280;5411;58.386;15.560;2022-08-04T14:29:08;100284.91;;;31.90;44.45
10720;BME280;5411;58.386;15.560;2022-08-04T14:31:59;100276.13;;;32.00;44.15